Time;durP1;ratioP1;P1;durP2;ratioP2;P2;SDS_P1;SDS_P2;PMS_P1;PMS_P2;Temp;Humidity;BMP_temperature;BMP_pressure;BME280_temperature;BME280_humidity;BME280_pressure;Samples;Min_cycle;Max_cycle;Signal;HPM_P1;HPM_P2
2022/01/22 00:01:34;;;;;;;11.50;9.32;;;3.40;99.90;;;3.48;85.45;101625.50;5072209;28;20200;-73
2022/01/22 00:04:02;;;;;;;12.48;8.93;;;3.40;99.90;;;3.48;85.45;101635.34;5071099;28;20184;-72
2022/01/22 00:06:31;;;;;;;9.10;8.20;;;3.40;99.90;;;3.55;85.47;101636.47;5070576;28;20278;-73
2022/01/22 00:09:06;;;;;;;10.88;8.50;;;3.50;99.90;;;3.55;85.41;101631.13;5072352;28;20220;-73
2022/01/22 00:11:38;;;;;;;10.98;8.90;;;3.50;99.90;;;3.59;85.08;101627.19;5072868;28;20179;-72
2022/01/22 00:14:26;;;;;;;11.13;8.43;;;3.60;99.90;;;3.60;85.34;101628.88;5073919;28;20188;-72
2022/01/22 00:16:57;;;;;;;14.82;8.98;;;3.60;99.90;;;3.63;85.12;101631.25;5074106;28;20218;-72
2022/01/22 00:19:27;;;;;;;13.70;9.32;;;3.60;99.90;;;3.63;85.33;101631.25;5075601;28;20207;-73
2022/01/22 00:21:56;;;;;;;11.63;8.60;;;3.60;99.90;;;3.67;85.10;101630.03;5072063;28;20185;-73
2022/01/22 00:24:26;;;;;;;15.27;9.05;;;3.60;99.90;;;3.65;85.36;101637.34;5072029;28;20165;-71
2022/01/22 00:26:54;;;;;;;13.40;9.00;;;3.60;99.90;;;3.65;85.55;101637.34;5070596;28;20290;-72
2022/01/22 00:29:23;;;;;;;12.35;9.75;;;3.60;99.90;;;3.69;85.34;101638.75;5070876;28;20204;-73
2022/01/22 00:31:51;;;;;;;11.32;8.82;;;3.60;99.90;;;3.74;85.18;101631.13;5073232;28;20172;-72
2022/01/22 00:34:20;;;;;;;14.90;10.32;;;3.70;99.90;;;3.72;85.34;101625.09;5075426;28;20196;-72
2022/01/22 00:36:48;;;;;;;13.20;9.77;;;3.70;99.90;;;3.65;85.57;101621.28;5075694;28;20666;-73
2022/01/22 00:39:17;;;;;;;15.27;10.18;;;3.70;99.90;;;3.66;85.51;101622.97;5075826;28;20218;-72
2022/01/22 00:41:46;;;;;;;15.20;11.27;;;3.60;99.90;;;3.71;85.78;101626.06;5076329;28;20535;-72
2022/01/22 00:44:15;;;;;;;12.60;10.18;;;3.70;99.90;;;3.64;85.39;101630.28;5075896;28;20188;-72
2022/01/22 00:46:43;;;;;;;14.98;9.35;;;3.60;99.90;;;3.63;85.60;101639.28;5074970;28;20212;-73
2022/01/22 00:49:12;;;;;;;13.32;10.50;;;3.60;99.90;;;3.69;85.37;101638.75;5073537;28;20235;-72
2022/01/22 00:51:40;;;;;;;12.57;9.10;;;3.70;99.90;;;3.64;85.53;101635.63;5075374;28;20597;-72
2022/01/22 00:54:09;;;;;;;18.77;10.60;;;3.70;99.90;;;3.75;85.46;101637.34;5074756;28;20193;-72
2022/01/22 00:56:38;;;;;;;19.45;10.88;;;3.70;99.90;;;3.69;85.39;101640.56;5074958;28;20184;-72
2022/01/22 00:59:08;;;;;;;11.45;9.43;;;3.70;99.90;;;3.74;85.40;101647.19;5073212;28;20212;-72
2022/01/22 01:01:36;;;;;;;11.20;8.65;;;3.70;99.90;;;3.75;85.28;101658.75;5073543;28;20192;-72
2022/01/22 01:04:08;;;;;;;11.65;8.35;;;3.70;99.90;;;3.69;85.23;101660.16;5073677;28;20276;-72
2022/01/22 01:06:37;;;;;;;14.32;10.32;;;3.70;99.90;;;3.85;85.26;101671.19;5073402;28;20609;-71
2022/01/22 01:09:09;;;;;;;12.55;8.82;;;3.70;99.90;;;3.79;85.05;101660.16;5073129;28;20219;-72
2022/01/22 01:11:44;;;;;;;10.48;8.10;;;3.70;99.90;;;3.73;85.05;101660.72;5073223;28;20180;-72
2022/01/22 01:14:18;;;;;;;10.88;8.23;;;3.70;99.90;;;3.71;85.22;101671.59;5073421;28;20340;-72
2022/01/22 01:17:08;;;;;;;11.70;8.88;;;3.70;99.90;;;3.76;85.13;101676.53;5073304;28;20192;-73
2022/01/22 01:39:16;;;;;;;10.93;8.50;;;3.70;99.90;;;3.76;84.48;101684.56;5048499;28;20585;-73
2022/01/22 01:41:52;;;;;;;9.48;7.38;;;3.70;99.90;;;3.79;84.82;101692.28;5073084;28;20670;-72
2022/01/22 01:44:23;;;;;;;10.15;6.35;;;3.70;99.90;;;3.75;84.53;101694.41;5073153;28;20215;-74
2022/01/22 01:47:17;;;;;;;10.15;8.30;;;3.70;99.90;;;3.81;84.65;101703.72;5074562;28;20183;-72
2022/01/22 01:49:46;;;;;;;10.93;7.25;;;3.80;99.90;;;3.83;84.64;101710.63;5072545;28;20187;-73
2022/01/22 01:52:33;;;;;;;10.70;7.30;;;3.80;99.90;;;3.87;84.15;101712.03;5072547;28;20734;-73
2022/01/22 01:55:10;;;;;;;7.78;6.05;;;3.80;99.90;;;3.83;84.50;101709.75;5072977;28;20208;-72
2022/01/22 01:57:40;;;;;;;8.18;6.05;;;3.80;99.90;;;3.78;84.56;101712.88;5072930;28;20254;-72
2022/01/22 02:00:20;;;;;;;8.73;7.57;;;3.80;99.90;;;3.77;84.40;101713.88;5074656;28;20185;-72
2022/01/22 02:02:58;;;;;;;9.02;6.97;;;3.80;99.90;;;3.84;84.48;101716.81;5072630;28;20214;-72
2022/01/22 02:05:32;;;;;;;9.75;7.85;;;3.80;99.90;;;3.76;84.61;101714.84;5072570;28;20195;-72
2022/01/22 02:08:01;;;;;;;10.95;8.57;;;3.70;99.90;;;3.81;84.32;101714.44;5072375;28;20261;-72
2022/01/22 02:10:54;;;;;;;12.60;9.52;;;3.80;99.90;;;3.82;84.30;101725.03;5072396;28;20233;-72
2022/01/22 02:14:00;;;;;;;10.82;8.18;;;3.80;99.90;;;3.76;84.23;101728.25;5044536;28;20212;-72
2022/01/22 02:25:19;;;;;;;9.25;5.90;;;3.70;99.90;;;3.75;84.29;101745.28;5072911;28;20324;-73
2022/01/22 02:27:48;;;;;;;9.50;6.13;;;3.70;99.90;;;3.71;84.17;101749.22;5072497;28;20234;-72
2022/01/22 02:30:27;;;;;;;7.80;6.30;;;3.80;99.90;;;3.64;84.53;101757.91;5072206;28;20468;-73
2022/01/22 02:33:30;;;;;;;8.20;6.03;;;3.70;99.90;;;3.70;84.35;101760.91;5065236;28;20592;-73
2022/01/22 02:36:03;;;;;;;11.73;6.53;;;3.70;99.90;;;3.70;84.08;101768.94;5073828;28;20186;-72
2022/01/22 02:38:39;;;;;;;7.07;5.85;;;3.70;99.90;;;3.70;84.34;101766.25;5071873;28;20323;-72
2022/01/22 02:41:13;;;;;;;7.07;5.63;;;3.70;99.90;;;3.64;84.13;101769.47;5071569;28;20227;-72
2022/01/22 02:43:42;;;;;;;7.72;4.90;;;3.70;99.90;;;3.58;84.56;101767.38;5072051;28;20658;-72
2022/01/22 02:46:14;;;;;;;9.20;6.80;;;3.60;99.90;;;3.58;84.63;101764.69;5071675;28;20246;-73
2022/01/22 02:48:42;;;;;;;6.88;4.60;;;3.60;99.90;;;3.56;84.44;101760.44;5071662;28;20771;-72
2022/01/22 02:51:11;;;;;;;7.97;5.20;;;3.60;99.90;;;3.54;84.49;101763.22;5072927;28;20275;-72
2022/01/22 02:53:41;;;;;;;8.18;6.07;;;3.50;99.90;;;3.54;84.70;101763.22;5071367;28;20188;-73
2022/01/22 02:56:11;;;;;;;7.53;5.68;;;3.50;99.90;;;3.49;84.82;101778.84;5073656;28;20222;-73
2022/01/22 02:58:39;;;;;;;8.07;5.22;;;3.50;99.90;;;3.58;84.55;101774.53;5071493;28;20220;-72
2022/01/22 03:01:10;;;;;;;6.82;5.15;;;3.50;99.90;;;3.57;84.02;101767.50;5071458;28;20603;-72
2022/01/22 03:03:39;;;;;;;7.35;5.10;;;3.50;99.90;;;3.56;83.92;101777.34;5071389;28;20241;-72
2022/01/22 03:06:14;;;;;;;9.38;5.35;;;3.50;99.90;;;3.55;83.79;101772.97;5071131;28;20188;-72
2022/01/22 03:08:46;;;;;;;6.20;4.65;;;3.50;99.90;;;3.60;82.91;101788.63;5070999;28;20219;-72
2022/01/22 03:11:21;;;;;;;6.88;5.57;;;3.60;99.90;;;3.62;82.58;101790.19;5071883;28;20188;-72
2022/01/22 03:14:33;;;;;;;12.68;5.80;;;3.50;99.90;;;3.63;82.24;101788.38;5071292;28;20657;-73
2022/01/22 03:17:10;;;;;;;5.90;4.38;;;3.50;99.90;;;3.54;82.42;101791.81;5071553;28;20249;-72
2022/01/22 03:22:29;;;;;;;5.75;4.35;;;3.50;99.90;;;3.46;83.07;101806.75;5071330;28;20188;-73
2022/01/22 03:27:45;;;;;;;5.97;4.63;;;3.50;99.90;;;3.40;83.57;101809.94;5070598;28;20243;-72
2022/01/22 03:30:16;;;;;;;6.25;4.53;;;3.40;99.90;;;3.29;84.00;101806.53;5070859;28;20650;-73
2022/01/22 03:32:48;;;;;;;7.65;5.20;;;3.40;99.90;;;3.18;84.27;101803.94;5071102;28;20237;-72
2022/01/22 03:35:26;;;;;;;8.73;4.72;;;3.30;99.90;;;3.09;84.62;101810.06;5070435;28;20295;-72
2022/01/22 03:37:58;;;;;;;6.13;4.90;;;3.20;99.90;;;3.07;84.48;101823.56;5072472;28;20215;-72
2022/01/22 03:40:31;;;;;;;5.90;4.57;;;3.10;99.90;;;3.02;84.55;101823.09;5070797;28;20237;-72
2022/01/22 03:42:59;;;;;;;5.55;4.75;;;3.10;99.90;;;2.98;84.71;101827.03;5071291;28;20271;-72
2022/01/22 03:45:28;;;;;;;9.48;5.70;;;3.00;99.90;;;2.91;85.06;101818.66;5071270;28;20736;-72
2022/01/22 03:47:57;;;;;;;8.60;5.75;;;3.00;99.90;;;2.88;85.09;101818.94;5071297;28;20238;-73
2022/01/22 03:50:26;;;;;;;7.18;5.65;;;3.00;99.90;;;2.85;84.94;101824.56;5071196;28;20234;-72
2022/01/22 03:52:55;;;;;;;14.00;6.10;;;2.90;99.90;;;2.84;85.08;101830.03;5071467;28;20554;-72
2022/01/22 03:55:34;;;;;;;11.90;5.45;;;2.90;99.90;;;2.82;85.10;101838.16;5070768;28;20702;-72
2022/01/22 03:58:23;;;;;;;10.27;4.70;;;2.80;99.90;;;2.77;84.98;101832.34;5072062;28;20273;-72
2022/01/22 04:01:47;;;;;;;7.40;5.50;;;2.80;99.90;;;2.75;85.13;101833.47;5070514;28;20674;-73
2022/01/22 04:04:15;;;;;;;9.52;4.57;;;2.80;99.90;;;2.65;85.33;101844.09;5071825;28;20180;-72
2022/01/22 04:07:25;;;;;;;8.52;4.63;;;2.70;99.90;;;2.63;85.12;101857.56;5071807;28;20226;-72
2022/01/22 04:09:56;;;;;;;5.47;4.90;;;2.70;99.90;;;2.63;85.12;101857.56;5074557;28;20195;-73
2022/01/22 04:12:33;;;;;;;8.10;5.20;;;2.70;99.90;;;2.66;84.98;101855.63;5076232;28;20200;-72
2022/01/22 04:15:05;;;;;;;8.38;5.22;;;2.70;99.90;;;2.60;84.85;101862.31;5074491;28;20569;-73
2022/01/22 04:26:02;;;;;;;11.07;6.00;;;2.50;99.90;;;2.52;84.90;101887.00;5074137;28;20187;-72
2022/01/22 04:28:30;;;;;;;8.05;3.95;;;2.50;99.90;;;2.40;84.82;101892.50;5075899;28;20212;-73
2022/01/22 04:31:00;;;;;;;9.25;4.95;;;2.50;99.90;;;2.44;85.08;101899.28;5073904;28;20180;-72
2022/01/22 04:33:29;;;;;;;7.95;4.95;;;2.40;99.90;;;2.40;85.02;101903.19;5074238;28;20194;-72
2022/01/22 04:35:57;;;;;;;7.95;5.55;;;2.50;99.90;;;2.49;84.89;101907.78;5088875;22;20211;-73
2022/01/22 04:38:26;;;;;;;6.75;4.75;;;2.50;99.90;;;2.57;84.84;101899.97;5073900;28;20212;-71
2022/01/22 04:40:55;;;;;;;8.15;5.35;;;2.50;99.90;;;2.72;84.55;101903.19;5056433;28;20206;-71
2022/01/22 04:43:23;;;;;;;7.55;4.80;;;2.70;99.90;;;2.69;84.27;101907.00;5074916;28;20196;-72
2022/01/22 04:46:06;;;;;;;7.68;4.60;;;2.70;99.90;;;2.81;83.94;101916.66;5056360;28;20207;-71
2022/01/22 04:48:49;;;;;;;9.13;5.40;;;2.80;99.90;;;2.70;83.54;101911.38;5056705;28;20712;-72
2022/01/22 04:56:56;;;;;;;11.40;4.63;;;2.70;99.90;;;2.71;83.71;101928.25;5056567;28;20223;-73
2022/01/22 04:59:25;;;;;;;7.95;4.65;;;2.70;99.90;;;2.72;83.16;101928.13;5074729;28;20200;-71
2022/01/22 05:01:53;;;;;;;6.20;4.70;;;2.70;99.90;;;2.65;83.24;101948.31;5075060;28;20173;-70
2022/01/22 05:04:42;;;;;;;8.32;4.35;;;2.70;99.90;;;2.62;83.22;101956.56;5075758;28;20763;-73
2022/01/22 05:07:31;;;;;;;6.70;4.18;;;2.70;99.90;;;2.68;83.15;101966.75;5057531;28;20265;-72
2022/01/22 05:10:18;;;;;;;6.00;3.58;;;2.70;99.90;;;2.75;82.73;101959.09;5075252;28;20199;-72
2022/01/22 05:12:47;;;;;;;10.60;4.38;;;2.70;99.90;;;2.77;82.66;101968.69;5073115;28;20188;-71
2022/01/22 05:15:17;;;;;;;7.75;4.25;;;2.70;99.90;;;2.68;82.38;101964.09;5074211;28;20212;-72
2022/01/22 05:17:47;;;;;;;6.70;4.57;;;2.70;99.90;;;2.67;82.54;101975.75;5072521;28;20247;-71
2022/01/22 05:20:24;;;;;;;6.03;4.10;;;2.70;99.90;;;2.60;82.79;101974.56;5056272;28;20693;-72
2022/01/22 05:22:59;;;;;;;6.75;4.30;;;2.60;99.90;;;2.63;82.68;101980.50;5055947;28;20615;-71
2022/01/22 05:25:33;;;;;;;8.63;4.13;;;2.60;99.90;;;2.65;82.69;101977.72;5070235;28;20183;-70
2022/01/22 05:28:18;;;;;;;10.93;5.18;;;2.60;99.90;;;2.61;82.76;101982.44;5067115;28;20620;-72
2022/01/22 05:31:22;;;;;;;5.28;4.38;;;2.60;99.90;;;2.55;82.38;101987.44;5073684;28;20183;-72
2022/01/22 05:37:02;;;;;;;5.82;3.53;;;2.50;99.90;;;2.47;82.41;101996.06;5055498;28;20232;-71
2022/01/22 05:39:33;;;;;;;8.10;4.80;;;2.50;99.90;;;2.44;82.33;101998.13;5073460;28;20623;-71
2022/01/22 05:42:07;;;;;;;6.55;4.75;;;2.50;99.90;;;2.45;82.03;102002.53;5072736;28;20682;-73
2022/01/22 05:44:36;;;;;;;7.05;4.95;;;2.50;99.90;;;2.43;82.06;102009.78;5076466;28;20200;-71
2022/01/22 05:47:06;;;;;;;7.85;5.20;;;2.40;99.90;;;2.31;82.37;102024.16;5076641;28;20169;-72
2022/01/22 05:49:41;;;;;;;9.48;5.95;;;2.40;99.90;;;2.23;82.71;102026.56;5075679;28;20709;-72
2022/01/22 05:52:15;;;;;;;9.98;3.90;;;2.30;99.90;;;2.27;82.75;102031.56;5057837;28;20176;-73
2022/01/22 06:00:30;;;;;;;8.18;5.22;;;2.30;99.90;;;2.19;82.96;102050.84;5073920;28;20279;-73
2022/01/22 06:03:11;;;;;;;10.48;4.35;;;2.20;99.90;;;2.19;83.06;102055.31;5055835;28;20196;-74
2022/01/22 06:05:40;;;;;;;7.13;4.88;;;2.20;99.90;;;2.09;83.21;102052.53;5072386;28;20295;-71
2022/01/22 06:08:15;;;;;;;10.32;4.68;;;2.20;99.90;;;2.02;83.41;102059.31;5072116;28;20226;-72
2022/01/22 06:10:46;;;;;;;16.35;5.68;;;2.10;99.90;;;2.08;83.23;102048.13;5073553;28;20250;-72
2022/01/22 06:13:19;;;;;;;9.50;5.13;;;2.10;99.90;;;1.98;83.74;102065.03;5055347;28;20183;-72
2022/01/22 06:15:50;;;;;;;6.70;5.15;;;2.10;99.90;;;1.97;83.55;102077.50;5055243;28;20268;-72
2022/01/22 06:18:26;;;;;;;9.93;5.88;;;2.10;99.90;;;1.90;83.97;102078.94;5072321;28;20211;-73
2022/01/22 06:20:54;;;;;;;7.75;4.80;;;2.00;99.90;;;1.86;83.84;102088.16;5055299;28;20180;-72
2022/01/22 06:23:24;;;;;;;20.88;7.00;;;2.00;99.90;;;1.88;84.14;102088.91;5072126;28;20187;-71
2022/01/22 06:25:53;;;;;;;10.50;5.13;;;2.00;99.90;;;1.97;83.84;102098.88;5073314;28;20176;-75
2022/01/22 06:28:21;;;;;;;10.55;5.13;;;2.00;99.90;;;2.02;83.70;102095.84;5073843;28;20208;-74
2022/01/22 06:30:52;;;;;;;8.20;4.95;;;2.10;99.90;;;1.91;83.57;102098.47;5071935;28;20337;-73
2022/01/22 06:33:23;;;;;;;6.75;4.78;;;2.00;99.90;;;1.81;84.21;102101.00;5055332;28;20520;-71
2022/01/22 06:35:52;;;;;;;9.15;5.70;;;1.90;99.90;;;1.80;83.90;102106.44;5073020;28;20204;-72
2022/01/22 06:38:21;;;;;;;8.15;5.97;;;1.90;99.90;;;1.76;83.96;102108.50;5071766;28;20240;-72
2022/01/22 06:44:20;;;;;;;10.07;5.03;;;1.80;99.90;;;1.66;84.35;102115.50;5072862;28;20257;-72
2022/01/22 06:46:56;;;;;;;6.38;5.53;;;1.80;99.90;;;1.64;84.26;102117.44;5054886;28;20271;-73
2022/01/22 06:50:00;;;;;;;11.18;6.35;;;1.80;99.90;;;1.74;84.07;102121.13;5064307;28;20560;-72
2022/01/22 06:52:47;;;;;;;9.02;5.70;;;1.80;99.90;;;1.71;84.06;102126.69;5052886;28;20581;-72
2022/01/22 06:55:28;;;;;;;10.63;6.15;;;1.80;99.90;;;1.65;84.03;102130.66;5035241;28;20569;-72
2022/01/22 06:57:58;;;;;;;12.32;5.43;;;1.80;99.90;;;1.71;83.51;102134.69;5052616;28;20212;-72
2022/01/22 07:00:30;;;;;;;14.73;6.10;;;1.80;99.90;;;1.70;83.42;102135.63;5052884;28;20275;-72
2022/01/22 07:03:10;;;;;;;8.93;6.15;;;1.80;99.90;;;1.71;83.81;102145.34;5036020;28;20193;-71
2022/01/22 07:05:39;;;;;;;8.55;6.40;;;1.80;99.90;;;1.68;83.72;102153.59;5052857;28;20309;-72
2022/01/22 07:08:16;;;;;;;8.05;4.60;;;1.80;99.90;;;1.80;83.84;102158.00;5035727;28;20208;-73
2022/01/22 07:10:50;;;;;;;7.82;5.45;;;1.80;99.90;;;1.85;83.57;102161.19;5038389;28;20724;-74
2022/01/22 07:13:21;;;;;;;9.10;5.95;;;1.90;99.90;;;1.78;83.58;102173.31;5038917;28;20215;-72
2022/01/22 07:15:51;;;;;;;12.38;5.88;;;1.90;99.90;;;1.78;83.66;102173.31;5038582;28;20204;-72
2022/01/22 07:18:22;;;;;;;7.53;6.50;;;1.80;99.90;;;1.81;83.23;102167.72;5038275;28;20262;-73
2022/01/22 07:20:52;;;;;;;8.35;6.20;;;1.90;99.90;;;1.74;83.55;102172.66;5057118;28;20204;-73
2022/01/22 07:23:43;;;;;;;9.40;6.60;;;1.80;99.90;;;1.75;83.71;102170.84;5054525;28;20203;-72
2022/01/22 07:26:17;;;;;;;27.52;15.23;;;1.80;99.90;;;1.77;83.64;102174.25;5056105;28;20673;-74
2022/01/22 07:28:53;;;;;;;16.67;12.05;;;1.80;99.90;;;1.82;83.89;102177.44;5054113;28;20212;-72
2022/01/22 07:31:23;;;;;;;21.50;8.02;;;1.90;99.90;;;1.81;83.70;102173.06;5055189;28;20252;-73
2022/01/22 07:33:52;;;;;;;14.00;6.70;;;1.90;99.90;;;1.87;83.55;102169.09;5038480;28;20193;-73
2022/01/22 07:36:22;;;;;;;14.32;5.90;;;1.90;99.90;;;1.99;83.52;102174.34;5055639;28;20274;-72
2022/01/22 07:38:52;;;;;;;16.60;12.15;;;2.00;99.90;;;2.00;83.18;102175.19;5041791;28;20227;-73
2022/01/22 07:41:20;;;;;;;12.43;9.13;;;2.10;99.90;;;1.94;83.07;102175.66;5041226;28;20212;-73
2022/01/22 07:44:12;;;;;;;12.68;8.77;;;2.00;99.90;;;1.87;82.89;102172.63;5057347;28;20192;-74
2022/01/22 07:46:49;;;;;;;11.93;7.05;;;2.00;99.90;;;1.93;83.03;102177.50;5057625;28;20185;-72
2022/01/22 07:49:23;;;;;;;9.18;6.47;;;2.00;99.90;;;1.92;82.96;102178.47;5078150;28;20244;-72
2022/01/22 07:51:55;;;;;;;11.30;6.30;;;2.00;99.90;;;1.99;82.90;102184.16;5060675;28;20195;-72
2022/01/22 07:54:24;;;;;;;15.60;11.77;;;2.00;99.90;;;1.91;82.66;102190.09;5077890;28;20200;-72
2022/01/22 07:56:56;;;;;;;10.55;7.65;;;2.00;99.90;;;1.90;82.86;102198.22;5061262;28;20205;-72
2022/01/22 07:59:26;;;;;;;13.25;5.78;;;2.00;99.90;;;1.90;82.91;102191.06;5060998;28;20226;-71
2022/01/22 08:01:54;;;;;;;8.18;5.45;;;1.90;99.90;;;1.93;82.74;102187.31;5078318;28;20176;-72
2022/01/22 08:04:24;;;;;;;16.02;11.73;;;2.00;99.90;;;1.92;82.61;102186.47;5080140;28;20157;-71
2022/01/22 08:06:59;;;;;;;9.10;5.32;;;2.00;99.90;;;1.91;82.44;102195.44;5079879;28;20208;-72
2022/01/22 08:10:00;;;;;;;13.50;12.45;;;2.00;99.90;;;1.95;82.61;102196.91;5066112;28;20608;-74
2022/01/22 08:12:42;;;;;;;8.23;7.30;;;2.00;99.90;;;2.02;82.46;102200.84;5056217;28;20185;-73
2022/01/22 08:15:17;;;;;;;10.13;6.15;;;2.10;99.90;;;2.11;82.52;102213.50;5038940;28;20667;-74
2022/01/22 08:17:46;;;;;;;10.05;6.03;;;2.10;99.90;;;2.09;82.12;102218.09;5055803;28;20757;-74
2022/01/22 08:20:20;;;;;;;11.27;6.25;;;2.10;99.90;;;2.17;82.04;102217.53;5055316;28;20193;-73
2022/01/22 08:22:53;;;;;;;11.27;5.90;;;2.20;99.90;;;2.08;82.09;102232.41;5057676;28;20184;-73
2022/01/22 08:25:44;;;;;;;7.15;5.97;;;2.20;99.90;;;2.30;81.64;102225.44;5058505;28;20262;-71
2022/01/22 08:31:24;;;;;;;13.02;5.68;;;2.30;99.90;;;2.33;80.94;102230.53;5045027;28;20188;-71
2022/01/22 08:36:43;;;;;;;8.52;5.05;;;2.40;99.90;;;2.36;81.28;102243.69;5015362;28;20240;-71
2022/01/22 08:39:13;;;;;;;12.10;4.93;;;2.40;99.90;;;2.52;80.52;102246.88;5060599;28;20231;-70
2022/01/22 08:41:42;;;;;;;4.82;4.43;;;2.50;99.90;;;2.54;80.05;102259.16;5077613;28;20191;-72
2022/01/22 08:44:12;;;;;;;8.75;4.55;;;2.50;99.90;;;2.66;79.56;102253.88;5060947;28;20188;-73
2022/01/22 08:46:43;;;;;;;10.27;5.70;;;2.60;99.90;;;2.90;79.78;102262.66;5057781;28;20188;-72
2022/01/22 08:49:11;;;;;;;12.63;5.90;;;2.70;99.90;;;3.35;77.96;102259.03;5058034;28;20267;-72
2022/01/22 08:51:58;;;;;;;6.78;4.63;;;3.10;99.90;;;3.20;77.44;102272.75;5057836;28;20212;-71
2022/01/22 08:54:27;;;;;;;9.43;4.68;;;3.20;99.90;;;3.28;77.83;102259.66;5051261;28;20617;-71
2022/01/22 08:56:57;;;;;;;9.02;6.03;;;3.30;99.90;;;3.43;77.29;102266.44;5046114;28;20204;-71
2022/01/22 08:59:25;;;;;;;7.20;4.97;;;3.40;99.90;;;3.50;77.48;102270.31;5066930;28;20219;-71
2022/01/22 09:02:00;;;;;;;12.45;5.13;;;3.40;99.90;;;3.27;76.82;102274.00;5060476;28;20180;-73
2022/01/22 09:04:49;;;;;;;10.75;4.40;;;3.30;99.90;;;3.25;76.96;102281.28;5075918;28;20756;-73
2022/01/22 09:07:50;;;;;;;7.43;4.90;;;3.30;99.90;;;3.19;76.29;102287.13;5052875;28;20223;-72
2022/01/22 09:10:30;;;;;;;5.25;3.63;;;3.20;99.90;;;3.09;76.92;102294.16;5074719;28;20211;-73
2022/01/22 09:13:09;;;;;;;9.63;3.58;;;3.20;99.90;;;3.30;76.38;102298.66;5060516;28;20188;-73
2022/01/22 09:15:53;;;;;;;9.60;5.32;;;3.20;99.90;;;3.38;75.81;102304.28;5057755;28;20172;-71
2022/01/22 09:18:24;;;;;;;8.85;4.93;;;3.30;99.90;;;3.22;76.05;102297.56;5057612;28;20224;-73
2022/01/22 09:21:02;;;;;;;8.25;4.65;;;3.30;99.90;;;3.02;76.48;102302.66;5074569;28;20200;-72
2022/01/22 09:23:35;;;;;;;16.55;11.05;;;3.10;99.90;;;3.15;76.69;102307.91;5057479;28;20200;-72
2022/01/22 09:26:09;;;;;;;7.20;3.25;;;3.10;99.90;;;2.99;76.65;102310.94;5051976;28;20218;-72
2022/01/22 09:28:39;;;;;;;9.88;5.60;;;3.10;99.90;;;3.05;76.44;102318.47;5053149;28;20209;-72
2022/01/22 09:31:07;;;;;;;8.70;4.90;;;3.10;99.90;;;3.06;75.96;102322.84;5063015;28;20223;-74
2022/01/22 09:33:38;;;;;;;7.45;4.32;;;3.10;99.90;;;3.03;76.39;102320.41;5054100;28;20208;-72
2022/01/22 09:36:32;;;;;;;7.88;3.90;;;3.10;99.90;;;3.47;75.41;102319.59;5074352;28;20199;-72
2022/01/22 09:39:34;;;;;;;7.20;4.72;;;3.30;99.90;;;3.32;75.97;102328.00;5056916;28;20291;-74
2022/01/22 09:42:15;;;;;;;10.45;5.20;;;3.30;99.90;;;3.40;75.41;102325.56;5057091;28;20188;-72
2022/01/22 09:45:05;;;;;;;7.80;4.90;;;3.30;99.90;;;3.29;75.83;102336.28;5074914;28;20270;-74
2022/01/22 09:47:51;;;;;;;10.45;6.03;;;3.30;99.90;;;3.31;75.49;102339.66;5075709;28;20287;-73
2022/01/22 09:50:37;;;;;;;8.57;5.13;;;3.30;99.90;;;3.23;75.86;102342.09;5059270;28;20199;-73
2022/01/22 09:53:32;;;;;;;12.05;4.90;;;3.30;99.90;;;3.10;75.94;102334.16;5074990;28;20192;-73
2022/01/22 09:56:28;;;;;;;7.28;5.22;;;3.10;99.90;;;3.38;75.49;102340.91;5090324;28;20195;-72
2022/01/22 09:59:16;;;;;;;11.80;6.20;;;3.30;99.90;;;3.39;76.42;102345.25;5071327;28;20244;-74
2022/01/22 10:02:14;;;;;;;13.68;6.70;;;3.30;99.90;;;3.61;75.03;102347.94;5056470;28;20200;-74
2022/01/22 10:04:48;;;;;;;7.78;5.90;;;3.50;99.90;;;3.35;75.72;102346.47;5053946;28;20185;-73
2022/01/22 10:07:38;;;;;;;12.43;6.28;;;3.50;99.90;;;3.36;76.32;102348.19;5055644;28;20185;-73
2022/01/22 10:10:40;;;;;;;8.70;5.10;;;3.40;99.90;;;3.53;75.42;102357.56;5037872;28;20192;-72
2022/01/22 10:13:42;;;;;;;11.90;6.43;;;3.40;99.90;;;3.60;75.54;102356.94;5054021;28;20192;-73
2022/01/22 10:16:31;;;;;;;7.50;5.80;;;3.50;99.90;;;3.42;74.05;102358.41;5055102;28;20184;-73
2022/01/22 10:19:16;;;;;;;8.05;5.00;;;3.40;99.90;;;3.41;74.36;102352.19;5053661;28;20319;-72
2022/01/22 10:21:48;;;;;;;7.13;5.07;;;3.40;99.90;;;3.46;73.78;102351.84;5058537;28;20204;-73
2022/01/22 10:24:37;;;;;;;5.75;4.25;;;3.40;99.90;;;3.55;73.49;102353.78;5059743;28;20221;-73
2022/01/22 10:27:26;;;;;;;7.72;4.30;;;3.50;99.90;;;3.74;72.13;102356.72;5058346;28;20251;-73
2022/01/22 10:29:58;;;;;;;6.40;4.40;;;3.60;99.90;;;3.88;71.63;102356.44;5064942;28;20268;-72
2022/01/22 10:32:38;;;;;;;7.47;3.95;;;3.80;99.90;;;4.04;71.25;102365.94;5066523;28;20173;-73
2022/01/22 10:35:29;;;;;;;6.25;3.85;;;3.80;99.90;;;4.00;70.36;102362.66;5060818;28;20254;-73
2022/01/22 10:38:41;;;;;;;9.75;3.70;;;3.90;99.90;;;3.96;70.55;102368.38;5086169;22;20239;-72
2022/01/22 10:41:13;;;;;;;7.57;4.70;;;3.90;99.90;;;4.36;69.77;102361.47;5073300;28;20238;-72
2022/01/22 10:43:51;;;;;;;9.85;4.55;;;4.10;99.90;;;4.23;70.66;102363.47;5054677;28;20180;-72
2022/01/22 10:46:32;;;;;;;7.63;4.25;;;4.20;99.90;;;4.52;69.78;102367.28;5052509;28;20196;-71
2022/01/22 10:49:07;;;;;;;24.73;22.45;;;4.30;99.90;;;4.15;69.07;102363.25;5052408;28;20392;-73
2022/01/22 10:51:47;;;;;;;21.15;18.77;;;4.20;99.90;;;4.05;68.43;102364.97;5052511;28;20172;-71
2022/01/22 10:54:18;;;;;;;18.73;16.65;;;4.10;94.90;;;4.10;68.48;102365.44;5052581;28;20194;-71
2022/01/22 10:56:48;;;;;;;10.60;9.80;;;4.10;97.40;;;4.06;68.67;102358.63;5052235;28;20260;-73
2022/01/22 10:59:19;;;;;;;12.07;7.60;;;4.00;98.50;;;4.34;68.67;102360.75;5052235;28;20610;-71
2022/01/22 11:01:54;;;;;;;6.43;4.80;;;4.20;99.80;;;4.40;66.59;102357.59;5052494;28;20173;-71
2022/01/22 11:04:26;;;;;;;5.50;3.38;;;4.30;94.70;;;4.25;65.83;102353.47;5034524;28;20557;-71
2022/01/22 11:06:58;;;;;;;3.97;2.80;;;4.20;78.00;;;4.36;65.66;102364.16;5052770;28;20196;-72
2022/01/22 11:09:48;;;;;;;6.20;3.78;;;4.30;74.10;;;4.50;64.46;102355.00;5034520;28;20187;-73
2022/01/22 11:12:18;;;;;;;4.90;2.58;;;4.30;60.60;;;4.55;63.15;102353.59;5052113;28;20197;-71
2022/01/22 11:14:47;;;;;;;3.97;2.40;;;4.50;99.90;;;4.48;63.58;102354.25;5051833;28;20205;-72
2022/01/22 11:17:15;;;;;;;7.28;4.55;;;4.40;99.90;;;5.89;72.95;102366.22;5051718;28;20181;-71
2022/01/22 11:19:48;;;;;;;6.95;3.70;;;5.30;99.90;;;5.36;63.93;102358.31;5052515;28;20583;-71
2022/01/22 11:22:20;;;;;;;6.93;3.05;;;5.20;91.40;;;4.73;63.28;102360.13;5052415;28;20593;-73
2022/01/22 11:24:52;;;;;;;6.38;3.20;;;4.80;56.20;;;5.25;65.06;102363.75;5052747;28;20173;-72
2022/01/22 11:27:23;;;;;;;4.88;2.35;;;5.10;97.70;;;4.67;63.77;102360.63;5052300;28;20212;-72
2022/01/22 11:29:55;;;;;;;3.50;2.75;;;4.90;56.20;;;5.91;67.66;102348.09;5054131;28;20177;-70
2022/01/22 11:32:30;;;;;;;4.28;2.95;;;5.50;99.20;;;5.91;65.63;102348.09;5060177;28;20187;-72
2022/01/22 11:35:05;;;;;;;3.70;2.50;;;5.70;87.80;;;6.95;63.50;102342.97;5042170;28;20192;-72
2022/01/22 11:37:44;;;;;;;5.50;3.47;;;6.40;99.90;;;8.67;61.66;102337.78;5055059;28;20203;-73
2022/01/22 11:40:16;;;;;;;9.05;3.20;;;7.70;99.90;;;6.77;57.55;102342.00;5053242;28;20675;-72
2022/01/22 11:42:57;;;;;;;7.40;2.05;;;7.10;37.10;;;7.09;55.89;102339.00;5054229;28;20177;-71
2022/01/22 11:45:29;;;;;;;3.17;2.38;;;7.30;36.60;;;6.72;58.16;102333.50;5054253;28;20275;-72
2022/01/22 11:48:18;;;;;;;6.45;2.35;;;6.80;39.20;;;6.73;56.44;102327.97;5052414;28;20266;-74
2022/01/22 11:50:50;;;;;;;3.42;2.17;;;6.80;36.70;;;6.93;64.04;102348.50;5052758;28;20189;-72
2022/01/22 11:53:29;;;;;;;7.97;3.28;;;6.60;47.90;;;5.34;59.84;102343.28;5052386;28;20286;-71
2022/01/22 11:56:24;;;;;;;4.57;3.40;;;6.10;31.50;;;7.18;67.31;102347.03;5055339;28;20678;-72
2022/01/22 11:59:24;;;;;;;2.97;2.67;;;6.50;98.00;;;5.78;58.02;102347.47;5054696;28;20575;-71
2022/01/22 12:02:07;;;;;;;6.85;5.68;;;6.00;40.80;;;6.25;60.20;102345.91;5050668;28;20215;-72
2022/01/22 12:05:07;;;;;;;8.85;4.53;;;6.10;52.30;;;6.11;57.29;102355.22;5055151;28;20201;-72
2022/01/22 12:07:36;;;;;;;5.43;2.90;;;6.10;34.70;;;6.79;62.05;102353.47;5051463;28;20215;-71